Time;durP1;ratioP1;P1;durP2;ratioP2;P2;SDS_P1;SDS_P2;PMS_P1;PMS_P2;Temp;Humidity;BMP_temperature;BMP_pressure;BME280_temperature;BME280_humidity;BME280_pressure;Samples;Min_cycle;Max_cycle;Signal;HPM_P1;HPM_P2
2022/08/24 00:01:13;;;;;;;3.63;2.60;;;19.40;99.80;;;;;;5050878;28;20561;-71
2022/08/24 00:03:40;;;;;;;4.40;2.67;;;19.40;99.80;;;;;;5050855;28;20406;-71
2022/08/24 00:06:09;;;;;;;5.10;2.20;;;19.40;99.10;;;;;;5050927;28;20552;-71
2022/08/24 00:08:35;;;;;;;3.97;2.77;;;19.40;98.90;;;;;;5050730;28;20417;-71
2022/08/24 00:11:01;;;;;;;5.13;3.00;;;19.40;98.90;;;;;;5050526;28;20437;-71
2022/08/24 00:13:27;;;;;;;4.57;2.87;;;19.40;99.00;;;;;;5050537;28;20413;-71
2022/08/24 00:15:53;;;;;;;3.00;2.70;;;19.40;99.10;;;;;;5050518;28;20183;-71
2022/08/24 00:18:19;;;;;;;5.13;2.67;;;19.40;98.80;;;;;;5050360;28;20468;-71
2022/08/24 00:20:45;;;;;;;3.27;2.33;;;19.50;98.60;;;;;;5049661;28;20442;-71
2022/08/24 00:23:11;;;;;;;3.53;2.70;;;19.60;99.50;;;;;;5050387;28;20271;-70
2022/08/24 00:25:36;;;;;;;7.20;3.20;;;19.60;99.90;;;;;;5050231;28;20532;-71
2022/08/24 00:28:03;;;;;;;2.50;2.30;;;19.50;99.90;;;;;;5050641;28;20421;-71
2022/08/24 00:30:29;;;;;;;4.97;2.50;;;19.40;99.90;;;;;;5050175;28;20325;-71
2022/08/24 00:32:55;;;;;;;4.23;3.27;;;19.30;99.90;;;;;;5050393;28;20448;-71
2022/08/24 00:35:21;;;;;;;4.90;3.23;;;19.20;99.90;;;;;;5049869;28;20452;-70
2022/08/24 00:37:48;;;;;;;3.70;2.80;;;19.00;99.90;;;;;;5049725;28;20426;-71
2022/08/24 00:40:20;;;;;;;9.13;3.20;;;18.80;99.90;;;;;;5049791;28;20429;-71
2022/08/24 00:42:46;;;;;;;6.23;3.07;;;18.70;99.90;;;;;;5048348;28;20796;-71
2022/08/24 00:45:15;;;;;;;9.43;3.07;;;18.70;99.90;;;;;;5049801;28;20531;-71
2022/08/24 00:47:48;;;;;;;4.80;3.30;;;18.60;99.90;;;;;;5049615;28;20417;-71
2022/08/24 00:50:22;;;;;;;4.13;3.10;;;18.50;99.90;;;;;;5048149;28;20443;-70
2022/08/24 00:53:14;;;;;;;6.30;3.00;;;18.50;99.90;;;;;;5049602;28;20780;-71
2022/08/24 00:55:50;;;;;;;8.13;3.10;;;18.40;99.90;;;;;;5044685;28;20450;-71
2022/08/24 00:58:20;;;;;;;3.97;3.40;;;18.30;99.90;;;;;;5047723;28;20448;-71
2022/08/24 01:00:52;;;;;;;6.77;3.10;;;18.20;99.90;;;;;;5049656;28;20441;-70
2022/08/24 01:03:18;;;;;;;4.17;3.50;;;18.20;99.90;;;;;;5049525;28;20434;-70
2022/08/24 01:05:44;;;;;;;3.67;2.97;;;18.10;99.90;;;;;;5049431;28;20565;-71
2022/08/24 01:08:11;;;;;;;4.40;2.80;;;18.10;99.90;;;;;;5049430;28;20509;-71
2022/08/24 01:10:40;;;;;;;3.90;3.30;;;18.00;99.90;;;;;;5049628;28;20811;-71
2022/08/24 01:13:09;;;;;;;4.60;3.47;;;18.00;99.90;;;;;;5047904;28;20423;-71
2022/08/24 01:15:39;;;;;;;4.93;3.60;;;17.90;99.90;;;;;;5049542;28;20772;-71
2022/08/24 01:21:04;;;;;;;5.80;4.03;;;17.70;99.90;;;;;;5049032;28;20445;-71
2022/08/24 01:23:40;;;;;;;4.90;3.53;;;17.50;99.90;;;;;;5049093;28;20424;-70
2022/08/24 01:26:08;;;;;;;5.13;3.70;;;17.40;99.90;;;;;;5048903;28;20957;-71
2022/08/24 01:28:35;;;;;;;4.23;3.83;;;17.40;99.90;;;;;;5048853;28;20413;-70
2022/08/24 01:31:01;;;;;;;4.17;3.40;;;17.40;99.90;;;;;;5048900;28;20438;-70
2022/08/24 01:33:32;;;;;;;10.17;3.80;;;17.40;99.90;;;;;;5047897;28;20432;-70
2022/08/24 01:36:19;;;;;;;4.30;3.73;;;17.40;99.90;;;;;;5048817;28;20421;-70
2022/08/24 01:38:46;;;;;;;5.30;3.43;;;17.40;99.90;;;;;;5049363;28;20410;-71
2022/08/24 01:41:11;;;;;;;6.60;3.70;;;17.30;99.90;;;;;;5049033;28;20441;-70
2022/08/24 01:43:37;;;;;;;4.00;3.60;;;17.30;99.90;;;;;;5049396;28;20489;-70
2022/08/24 01:46:03;;;;;;;4.43;4.03;;;17.20;99.90;;;;;;5049241;28;20217;-71
2022/08/24 01:48:28;;;;;;;4.60;3.27;;;17.10;99.90;;;;;;5049273;28;20603;-70
2022/08/24 01:50:54;;;;;;;7.90;4.20;;;17.10;99.90;;;;;;5048699;28;20572;-70
2022/08/24 01:53:20;;;;;;;4.90;3.50;;;17.10;99.90;;;;;;5048556;28;20601;-71
2022/08/24 01:55:46;;;;;;;6.00;3.80;;;17.00;99.90;;;;;;5048474;28;20468;-71
2022/08/24 01:58:11;;;;;;;4.33;3.93;;;17.00;99.90;;;;;;5048354;28;20196;-70
2022/08/24 02:00:37;;;;;;;4.07;3.13;;;17.00;99.90;;;;;;5048287;28;20496;-70
2022/08/24 02:03:04;;;;;;;7.93;3.50;;;16.90;99.90;;;;;;5046922;28;20186;-70
2022/08/24 02:05:30;;;;;;;4.20;3.73;;;16.90;99.90;;;;;;5046909;28;20489;-70
2022/08/24 02:07:57;;;;;;;5.43;3.50;;;16.90;99.90;;;;;;5048251;28;20432;-70
2022/08/24 02:10:23;;;;;;;8.30;3.77;;;16.90;99.90;;;;;;5048229;28;20492;-70
2022/08/24 02:12:56;;;;;;;6.23;3.40;;;16.90;99.90;;;;;;5048183;28;20800;-70
2022/08/24 02:15:27;;;;;;;5.73;4.00;;;16.90;99.90;;;;;;5048087;28;20423;-70
2022/08/24 02:17:54;;;;;;;5.57;3.87;;;16.80;99.90;;;;;;5048263;28;20423;-70
2022/08/24 02:20:20;;;;;;;4.90;3.37;;;16.80;99.90;;;;;;5048008;28;20440;-71
2022/08/24 02:22:47;;;;;;;3.97;3.57;;;16.70;99.90;;;;;;5048141;28;20418;-70
2022/08/24 02:25:14;;;;;;;8.83;4.00;;;16.60;99.90;;;;;;5048077;28;20457;-71
2022/08/24 02:27:39;;;;;;;8.47;3.73;;;16.60;99.90;;;;;;5048057;28;20424;-71
2022/08/24 02:30:06;;;;;;;4.10;3.70;;;16.60;99.90;;;;;;5048023;28;20452;-71
2022/08/24 02:32:31;;;;;;;4.97;3.53;;;16.50;99.90;;;;;;5048035;28;20696;-70
2022/08/24 02:34:57;;;;;;;4.60;3.90;;;16.50;99.90;;;;;;5030074;28;20515;-70
2022/08/24 02:37:23;;;;;;;4.33;3.43;;;16.50;99.90;;;;;;5047895;28;20213;-70
2022/08/24 02:39:48;;;;;;;8.07;3.67;;;16.50;99.90;;;;;;5047836;28;20253;-70
2022/08/24 02:42:14;;;;;;;7.50;4.30;;;16.40;99.90;;;;;;5048001;28;20207;-70
2022/08/24 02:44:40;;;;;;;5.33;4.10;;;16.40;99.90;;;;;;5050309;28;20253;-70
2022/08/24 02:47:06;;;;;;;4.40;3.43;;;16.40;99.90;;;;;;5052034;28;20889;-71
2022/08/24 02:49:32;;;;;;;5.03;3.37;;;16.30;99.90;;;;;;5052040;28;20207;-70
2022/08/24 02:51:57;;;;;;;5.07;3.73;;;16.30;99.90;;;;;;5051673;28;20655;-70
2022/08/24 02:54:23;;;;;;;7.23;4.00;;;16.30;99.90;;;;;;5052111;28;20219;-70
2022/08/24 02:56:49;;;;;;;3.60;3.30;;;16.20;99.90;;;;;;5052398;28;20204;-70
2022/08/24 02:59:15;;;;;;;4.70;4.00;;;16.20;99.90;;;;;;5051959;28;20207;-70
2022/08/24 03:01:41;;;;;;;7.60;4.10;;;16.20;99.90;;;;;;5051625;28;20897;-71
2022/08/24 03:04:07;;;;;;;4.33;3.93;;;16.10;99.90;;;;;;5050031;28;20901;-71
2022/08/24 03:06:33;;;;;;;3.80;3.00;;;16.10;99.90;;;;;;5051485;28;20242;-70
2022/08/24 03:08:59;;;;;;;5.10;4.33;;;16.10;99.90;;;;;;5051267;28;20429;-71
2022/08/24 03:11:25;;;;;;;4.90;3.63;;;16.10;99.90;;;;;;5051350;28;20432;-71
2022/08/24 03:13:50;;;;;;;5.10;3.97;;;16.00;99.90;;;;;;5051242;28;20198;-70
2022/08/24 03:16:16;;;;;;;3.93;3.60;;;16.00;99.90;;;;;;5051222;28;20696;-71
2022/08/24 03:18:42;;;;;;;5.97;3.97;;;16.00;99.90;;;;;;5051603;28;20711;-71
2022/08/24 03:21:09;;;;;;;5.80;4.27;;;16.00;99.90;;;;;;5051142;28;20440;-71
2022/08/24 03:23:35;;;;;;;5.73;3.70;;;15.90;99.90;;;;;;5051105;28;20498;-70
2022/08/24 03:26:01;;;;;;;9.43;3.93;;;15.90;99.90;;;;;;5049659;28;20457;-70
2022/08/24 03:28:26;;;;;;;7.40;4.50;;;15.90;99.90;;;;;;5049438;28;20444;-71
2022/08/24 03:30:52;;;;;;;8.60;3.80;;;15.80;99.90;;;;;;5051054;28;20724;-71
2022/08/24 03:33:19;;;;;;;4.57;4.07;;;15.80;99.90;;;;;;5051320;28;20186;-71
2022/08/24 03:35:44;;;;;;;5.57;3.30;;;15.90;99.90;;;;;;5050973;28;20738;-71
2022/08/24 03:38:11;;;;;;;7.20;4.30;;;15.80;99.90;;;;;;5051102;28;20537;-71
2022/08/24 03:40:37;;;;;;;5.87;4.20;;;15.80;99.90;;;;;;5049336;28;20203;-70
2022/08/24 03:43:02;;;;;;;10.53;4.80;;;15.40;99.90;;;;;;5049181;28;20424;-71
2022/08/24 03:45:28;;;;;;;6.10;4.70;;;15.20;99.90;;;;;;5050789;28;20542;-70
2022/08/24 03:47:55;;;;;;;7.20;4.67;;;15.00;99.90;;;;;;5050971;28;20183;-71
2022/08/24 03:50:21;;;;;;;8.10;4.13;;;14.90;99.90;;;;;;5050657;28;20433;-71
2022/08/24 03:52:47;;;;;;;4.40;4.00;;;15.00;99.90;;;;;;5050682;28;20445;-70
2022/08/24 03:55:13;;;;;;;6.53;4.73;;;15.00;99.90;;;;;;5048159;28;20421;-70
2022/08/24 03:57:39;;;;;;;4.17;3.77;;;15.00;99.90;;;;;;5050345;28;20485;-71
2022/08/24 04:00:08;;;;;;;6.50;3.90;;;15.20;99.90;;;;;;5050638;28;20283;-70
2022/08/24 04:02:34;;;;;;;4.23;3.80;;;15.20;99.90;;;;;;5048902;28;20432;-71
2022/08/24 04:05:00;;;;;;;8.77;4.30;;;15.20;99.90;;;;;;5050283;28;20439;-71
2022/08/24 04:07:26;;;;;;;4.93;4.43;;;15.30;99.90;;;;;;5050406;28;20424;-71
2022/08/24 04:09:52;;;;;;;4.63;4.23;;;15.30;99.90;;;;;;5048716;28;20205;-71
2022/08/24 04:12:18;;;;;;;6.20;4.00;;;15.30;99.90;;;;;;5050352;28;20472;-70
2022/08/24 04:14:43;;;;;;;5.33;4.83;;;15.30;99.90;;;;;;5050257;28;20234;-70
2022/08/24 04:17:11;;;;;;;4.87;4.13;;;15.30;99.90;;;;;;5050121;28;20187;-70
2022/08/24 04:19:37;;;;;;;12.40;4.40;;;15.40;99.90;;;;;;5050508;28;20193;-70
2022/08/24 04:22:03;;;;;;;6.40;4.67;;;15.40;99.90;;;;;;5048751;28;20429;-70
2022/08/24 04:24:29;;;;;;;8.43;4.20;;;15.40;99.90;;;;;;5050017;28;20424;-71
2022/08/24 04:26:54;;;;;;;5.60;3.93;;;15.30;99.90;;;;;;5050173;28;20218;-71
2022/08/24 04:29:20;;;;;;;8.77;4.40;;;15.30;99.90;;;;;;5049949;28;20460;-71
2022/08/24 04:31:46;;;;;;;6.20;4.20;;;15.20;99.90;;;;;;5049976;28;20179;-71
2022/08/24 04:34:14;;;;;;;4.40;4.00;;;15.20;99.90;;;;;;5050305;28;20470;-71
2022/08/24 04:36:42;;;;;;;4.03;3.63;;;15.20;99.90;;;;;;5049080;28;20420;-71
2022/08/24 04:39:07;;;;;;;7.70;4.40;;;15.20;99.90;;;;;;5047047;28;20420;-71
2022/08/24 04:41:33;;;;;;;4.47;4.07;;;15.20;99.90;;;;;;5048613;28;20435;-71
2022/08/24 04:44:01;;;;;;;4.40;4.00;;;15.20;99.90;;;;;;5048190;28;20680;-71
2022/08/24 04:46:27;;;;;;;5.23;4.30;;;15.30;99.90;;;;;;5048372;28;20624;-70
2022/08/24 04:48:53;;;;;;;5.27;4.37;;;15.20;99.90;;;;;;5048478;28;20421;-70
2022/08/24 04:51:19;;;;;;;7.83;4.63;;;15.30;99.90;;;;;;5048411;28;20470;-70
2022/08/24 04:53:47;;;;;;;5.80;4.10;;;15.20;99.90;;;;;;5048596;28;20193;-70
2022/08/24 04:56:17;;;;;;;7.47;4.30;;;15.20;99.90;;;;;;5047035;28;20421;-70
2022/08/24 04:58:43;;;;;;;4.80;4.30;;;15.20;99.90;;;;;;5048827;28;20902;-70
2022/08/24 05:01:19;;;;;;;3.87;3.40;;;15.20;99.90;;;;;;5048906;28;21103;-70
2022/08/24 05:03:47;;;;;;;6.90;3.80;;;15.10;99.90;;;;;;5047272;28;20420;-70
2022/08/24 05:06:15;;;;;;;8.17;3.50;;;15.20;99.90;;;;;;5048781;28;20866;-71
2022/08/24 05:08:42;;;;;;;6.27;4.30;;;15.20;99.90;;;;;;5048564;28;20434;-72
2022/08/24 05:11:08;;;;;;;5.23;3.77;;;15.30;99.90;;;;;;5048569;28;20794;-72
2022/08/24 05:13:34;;;;;;;5.80;4.33;;;15.30;99.90;;;;;;5048874;28;20927;-71
2022/08/24 05:16:04;;;;;;;8.60;3.87;;;15.40;99.90;;;;;;5048675;28;20492;-70
2022/08/24 05:18:32;;;;;;;4.90;4.03;;;15.40;99.90;;;;;;5048620;28;20950;-71
2022/08/24 05:20:58;;;;;;;9.83;4.80;;;15.40;99.90;;;;;;5048476;28;20490;-69
2022/08/24 05:23:24;;;;;;;6.67;4.13;;;15.50;99.90;;;;;;5048578;28;20422;-72
2022/08/24 05:25:50;;;;;;;6.60;3.80;;;15.50;99.90;;;;;;5047069;28;20466;-72
2022/08/24 05:28:15;;;;;;;4.77;4.30;;;15.60;99.90;;;;;;5046903;28;20467;-72
2022/08/24 05:30:42;;;;;;;8.03;4.27;;;15.60;99.90;;;;;;5048251;28;20588;-72
2022/08/24 05:33:08;;;;;;;4.63;4.20;;;15.70;99.90;;;;;;5046706;28;20187;-71
2022/08/24 05:35:38;;;;;;;4.43;3.90;;;15.90;99.90;;;;;;5048348;28;20993;-71
2022/08/24 05:38:04;;;;;;;4.43;4.03;;;16.10;99.90;;;;;;5048445;28;20426;-71
2022/08/24 05:40:30;;;;;;;5.43;4.00;;;16.30;99.90;;;;;;5048162;28;20442;-71
2022/08/24 05:42:55;;;;;;;8.63;3.80;;;16.40;99.90;;;;;;5046849;28;20424;-71
2022/08/24 05:45:21;;;;;;;4.67;3.80;;;16.50;99.90;;;;;;5046355;28;20268;-72
2022/08/24 05:47:47;;;;;;;6.20;4.63;;;16.50;99.90;;;;;;5047957;28;20720;-72
2022/08/24 05:50:12;;;;;;;5.20;4.37;;;16.60;99.90;;;;;;5046523;28;20229;-72
2022/08/24 05:52:38;;;;;;;7.00;4.27;;;16.70;99.90;;;;;;5047978;28;20219;-71
2022/08/24 05:55:04;;;;;;;4.80;3.97;;;16.80;99.90;;;;;;5047756;28;20191;-69
2022/08/24 05:57:33;;;;;;;15.30;5.10;;;17.00;99.90;;;;;;5047790;28;20198;-71
2022/08/24 05:59:59;;;;;;;6.07;3.90;;;17.00;99.90;;;;;;5047758;28;20431;-71
2022/08/24 06:02:25;;;;;;;7.30;2.80;;;17.20;99.90;;;;;;5046341;28;20410;-72
2022/08/24 06:04:51;;;;;;;4.70;3.37;;;17.30;99.90;;;;;;5047738;28;20414;-71
2022/08/24 06:07:17;;;;;;;5.70;3.40;;;17.40;99.90;;;;;;5047292;28;20491;-71
2022/08/24 06:09:43;;;;;;;3.93;2.80;;;17.60;99.90;;;;;;5047487;28;20197;-70
2022/08/24 06:12:11;;;;;;;7.60;3.30;;;17.80;99.90;;;;;;5047520;28;20443;-70
2022/08/24 06:14:37;;;;;;;9.73;3.40;;;18.00;99.90;;;;;;5047341;28;20552;-70
2022/08/24 06:17:06;;;;;;;3.67;3.33;;;18.10;99.90;;;;;;5047098;28;20531;-70
2022/08/24 06:19:32;;;;;;;6.30;3.47;;;18.30;99.90;;;;;;5046780;28;20449;-71
2022/08/24 06:21:58;;;;;;;4.93;3.60;;;18.50;99.90;;;;;;5047304;28;20424;-71
2022/08/24 06:27:20;;;;;;;6.20;3.20;;;18.60;99.90;;;;;;5047143;28;20426;-70
2022/08/24 06:27:20;;;;;;;5.63;3.70;;;18.80;99.90;;;;;;5046745;28;20523;-70
2022/08/24 06:29:57;;;;;;;8.57;3.07;;;19.00;99.90;;;;;;5047648;28;20444;-71
2022/08/24 06:32:23;;;;;;;3.53;3.13;;;19.00;99.90;;;;;;5047993;28;20402;-71
2022/08/24 06:34:49;;;;;;;5.10;3.73;;;19.20;99.90;;;;;;5046980;28;20452;-70
2022/08/24 06:37:15;;;;;;;11.17;3.77;;;19.20;99.90;;;;;;5046986;28;20190;-71
2022/08/24 06:39:41;;;;;;;4.07;3.70;;;19.40;99.90;;;;;;5046900;28;21005;-70
2022/08/24 06:42:06;;;;;;;7.87;4.23;;;19.50;99.90;;;;;;5046683;28;20422;-70
2022/08/24 06:44:32;;;;;;;6.57;4.47;;;19.70;99.90;;;;;;5046561;28;20708;-70
2022/08/24 06:46:58;;;;;;;5.13;3.80;;;19.70;99.90;;;;;;5046598;28;20689;-71
2022/08/24 06:49:24;;;;;;;6.00;3.40;;;19.80;99.90;;;;;;5046507;28;20205;-70
2022/08/24 06:51:50;;;;;;;5.50;3.90;;;19.80;99.90;;;;;;5046541;28;20214;-70
2022/08/24 06:54:16;;;;;;;5.17;3.70;;;19.90;99.90;;;;;;5046489;28;20183;-68
2022/08/24 06:56:42;;;;;;;3.80;3.30;;;19.80;99.90;;;;;;5044709;28;20441;-71
2022/08/24 06:59:07;;;;;;;7.77;4.33;;;19.90;99.90;;;;;;5046401;28;21012;-69
2022/08/24 07:01:33;;;;;;;8.37;3.53;;;19.80;99.90;;;;;;5046413;28;21005;-69
2022/08/24 07:03:59;;;;;;;7.50;3.37;;;19.80;99.90;;;;;;5044956;28;20188;-68
2022/08/24 07:06:25;;;;;;;5.90;3.97;;;19.70;99.90;;;;;;5046338;28;20807;-69
2022/08/24 07:08:52;;;;;;;7.73;3.97;;;19.70;99.90;;;;;;5046433;28;20568;-69
2022/08/24 07:11:18;;;;;;;5.33;3.40;;;19.70;99.90;;;;;;5046186;28;20277;-70
2022/08/24 07:13:46;;;;;;;6.50;4.20;;;19.70;99.90;;;;;;5046182;28;20824;-69
2022/08/24 07:16:13;;;;;;;4.13;3.63;;;19.80;99.90;;;;;;5046369;28;20429;-68
2022/08/24 07:18:39;;;;;;;3.33;2.80;;;19.80;99.90;;;;;;5046089;28;20447;-69
2022/08/24 07:21:05;;;;;;;4.70;3.43;;;19.80;99.90;;;;;;5046323;28;20437;-68
2022/08/24 07:23:32;;;;;;;3.43;3.13;;;19.80;99.90;;;;;;5044806;28;20421;-69
2022/08/24 07:26:05;;;;;;;4.27;2.80;;;19.90;99.90;;;;;;5046212;28;20458;-68
2022/08/24 07:28:34;;;;;;;5.30;3.17;;;19.90;99.90;;;;;;5046157;28;20440;-70
2022/08/24 07:31:00;;;;;;;3.53;2.97;;;20.00;99.90;;;;;;5047278;28;20446;-72
2022/08/24 07:33:26;;;;;;;6.97;3.10;;;20.10;99.90;;;;;;5050002;28;20874;-70
2022/08/24 07:35:51;;;;;;;3.37;2.50;;;20.10;99.90;;;;;;5049646;28;20183;-70
2022/08/24 07:38:17;;;;;;;6.90;3.27;;;20.20;99.90;;;;;;5049857;28;20647;-71
2022/08/24 07:40:46;;;;;;;3.07;2.87;;;20.30;99.90;;;;;;5049462;28;20587;-71
2022/08/24 07:43:12;;;;;;;5.60;2.90;;;20.40;99.90;;;;;;5049735;28;20558;-70
2022/08/24 07:45:41;;;;;;;4.73;2.77;;;20.50;99.90;;;;;;5049528;28;20491;-71
2022/08/24 07:48:07;;;;;;;3.50;3.17;;;20.60;99.90;;;;;;5049641;28;20521;-70
2022/08/24 07:50:33;;;;;;;14.87;3.33;;;20.60;99.90;;;;;;5048015;28;20437;-70
2022/08/24 07:52:58;;;;;;;6.23;2.97;;;20.60;99.90;;;;;;5049452;28;20829;-71
2022/08/24 07:55:24;;;;;;;6.17;2.90;;;20.70;99.90;;;;;;5049337;28;20230;-71
2022/08/24 07:57:50;;;;;;;7.00;3.87;;;20.80;99.90;;;;;;5049176;28;20196;-70
2022/08/24 08:00:18;;;;;;;5.20;3.13;;;20.80;99.90;;;;;;5049144;28;20881;-70
2022/08/24 08:02:45;;;;;;;4.23;3.20;;;20.90;99.90;;;;;;5049256;28;20569;-70
2022/08/24 08:05:13;;;;;;;4.03;3.73;;;21.00;99.90;;;;;;5047503;28;20431;-71
2022/08/24 08:07:40;;;;;;;5.80;3.50;;;21.20;99.90;;;;;;5049079;28;20419;-71
2022/08/24 08:10:07;;;;;;;6.40;3.90;;;21.30;99.90;;;;;;5049401;28;21063;-71
2022/08/24 08:12:34;;;;;;;6.40;3.97;;;21.30;99.90;;;;;;5049190;28;20427;-71
2022/08/24 08:14:59;;;;;;;4.27;2.97;;;21.40;99.90;;;;;;5049189;28;20418;-70
2022/08/24 08:17:26;;;;;;;5.03;3.13;;;21.50;99.90;;;;;;5048950;28;20451;-70
2022/08/24 08:19:52;;;;;;;3.77;3.43;;;21.70;99.90;;;;;;5049087;28;20204;-71
2022/08/24 08:25:01;;;;;;;4.50;2.77;;;21.90;99.90;;;;;;5049510;28;20446;-70
2022/08/24 08:27:27;;;;;;;5.83;3.40;;;22.00;99.90;;;;;;5049437;28;20420;-71
2022/08/24 08:29:53;;;;;;;6.60;2.97;;;22.10;99.90;;;;;;5049248;28;20288;-71
2022/08/24 08:32:19;;;;;;;2.77;2.30;;;22.20;99.90;;;;;;5049094;28;20182;-70
2022/08/24 08:34:45;;;;;;;4.63;2.93;;;22.30;99.90;;;;;;5049307;28;20208;-70
2022/08/24 08:37:12;;;;;;;5.70;3.10;;;22.40;99.90;;;;;;5049082;28;20836;-70
2022/08/24 08:39:39;;;;;;;2.97;2.53;;;22.50;99.90;;;;;;5048923;28;20440;-70
2022/08/24 08:42:23;;;;;;;3.77;2.53;;;22.70;99.90;;;;;;5046976;28;20416;-70
2022/08/24 08:45:10;;;;;;;2.77;2.57;;;22.90;99.90;;;;;;5047630;28;20497;-70
2022/08/24 08:48:00;;;;;;;3.37;2.30;;;23.10;99.90;;;;;;5049083;28;20434;-70
2022/08/24 08:50:43;;;;;;;4.80;2.50;;;23.20;99.90;;;;;;5048826;28;20819;-70
2022/08/24 08:53:40;;;;;;;3.70;2.50;;;23.40;99.00;;;;;;5048481;28;20428;-70
2022/08/24 08:56:13;;;;;;;5.10;2.63;;;23.60;97.90;;;;;;5048836;28;20776;-71
2022/08/24 08:59:00;;;;;;;5.93;2.70;;;23.80;96.90;;;;;;5048415;28;20454;-70
2022/08/24 09:01:50;;;;;;;3.00;2.30;;;24.00;95.90;;;;;;5048401;28;20909;-70
2022/08/24 09:04:25;;;;;;;2.60;2.40;;;24.20;94.20;;;;;;5048118;28;20508;-70
2022/08/24 09:07:03;;;;;;;5.00;2.43;;;24.50;93.10;;;;;;5047987;28;20547;-70
2022/08/24 09:09:50;;;;;;;1.90;1.80;;;24.80;93.50;;;;;;5048300;28;20505;-71
2022/08/24 09:12:30;;;;;;;6.13;2.23;;;25.10;92.10;;;;;;5046189;28;20516;-70
2022/08/24 09:15:02;;;;;;;3.37;1.90;;;25.40;90.70;;;;;;5047874;28;20912;-70
2022/08/24 09:17:51;;;;;;;5.00;2.27;;;25.70;90.70;;;;;;5047756;28;20772;-70
2022/08/24 09:20:38;;;;;;;5.07;2.37;;;26.10;87.60;;;;;;5047957;28;20462;-70
2022/08/24 09:23:35;;;;;;;2.00;1.90;;;26.30;85.60;;;;;;5047775;28;20418;-70
2022/08/24 09:26:29;;;;;;;3.53;2.10;;;26.60;86.30;;;;;;5047847;28;20462;-70
2022/08/24 09:29:00;;;;;;;5.97;1.90;;;26.80;85.10;;;;;;5047100;28;20461;-70
2022/08/24 09:32:05;;;;;;;2.43;2.03;;;27.30;83.50;;;;;;5047562;28;20414;-70
2022/08/24 09:34:59;;;;;;;2.77;2.10;;;27.70;82.80;;;;;;5043021;28;20426;-70
2022/08/24 09:37:38;;;;;;;4.40;2.00;;;28.20;78.30;;;;;;5047385;28;20427;-70
2022/08/24 09:40:25;;;;;;;2.30;2.10;;;28.40;77.60;;;;;;5047384;28;20773;-70
2022/08/24 09:43:16;;;;;;;4.00;1.87;;;28.80;77.40;;;;;;5047313;28;20483;-70
2022/08/24 09:46:12;;;;;;;1.90;1.80;;;29.10;75.20;;;;;;5047972;28;21001;-70
2022/08/24 09:49:08;;;;;;;2.50;2.23;;;29.40;74.40;;;;;;5045905;28;20987;-70
2022/08/24 09:51:55;;;;;;;2.40;2.20;;;29.60;73.10;;;;;;5047166;28;20410;-70
2022/08/24 09:54:38;;;;;;;3.73;2.20;;;29.80;71.60;;;;;;5046358;28;20432;-70
2022/08/24 09:57:19;;;;;;;2.87;2.17;;;30.10;69.60;;;;;;5046989;28;20444;-70
2022/08/24 09:59:54;;;;;;;3.27;1.90;;;30.40;69.10;;;;;;5045461;28;20468;-70
2022/08/24 10:02:51;;;;;;;2.60;2.03;;;30.50;61.10;;;;;;5047713;28;20836;-70
2022/08/24 10:05:26;;;;;;;6.90;1.73;;;30.60;62.10;;;;;;5047637;28;20943;-71
2022/08/24 10:08:13;;;;;;;2.83;1.80;;;30.90;59.80;;;;;;5047310;28;20941;-70
2022/08/24 10:11:04;;;;;;;5.33;1.80;;;31.20;58.10;;;;;;5047288;28;20426;-70
2022/08/24 10:13:56;;;;;;;2.60;1.93;;;31.40;58.20;;;;;;5047025;28;20445;-71
2022/08/24 10:16:21;;;;;;;3.10;1.67;;;31.40;58.90;;;;;;5048273;28;20406;-70
2022/08/24 10:18:56;;;;;;;1.70;1.50;;;31.60;58.30;;;;;;5047785;28;20913;-71
2022/08/24 10:21:44;;;;;;;6.23;1.87;;;31.70;56.10;;;;;;5047224;28;20280;-70
2022/08/24 10:24:47;;;;;;;2.07;1.67;;;31.70;54.00;;;;;;5047120;28;20412;-71
2022/08/24 10:27:22;;;;;;;4.40;1.50;;;31.70;54.60;;;;;;5004352;28;20500;-70
2022/08/24 10:30:06;;;;;;;2.23;1.30;;;32.00;53.50;;;;;;5040708;28;20790;-71
2022/08/24 10:32:56;;;;;;;3.43;1.67;;;32.10;54.50;;;;;;5047051;28;20418;-70
2022/08/24 10:35:31;;;;;;;3.17;1.30;;;32.10;51.40;;;;;;5046690;28;20788;-70
2022/08/24 10:41:18;;;;;;;1.50;1.10;;;32.20;51.10;;;;;;5046469;28;20491;-70
2022/08/24 10:43:47;;;;;;;2.07;1.60;;;32.30;51.80;;;;;;5046667;28;20468;-70
2022/08/24 10:46:31;;;;;;;1.50;1.23;;;32.20;51.70;;;;;;5045146;28;20462;-70
2022/08/24 10:49:17;;;;;;;2.20;1.53;;;32.10;52.30;;;;;;5046502;28;20513;-70
2022/08/24 10:52:09;;;;;;;1.40;1.20;;;32.30;53.00;;;;;;5035895;28;20484;-70
2022/08/24 10:54:35;;;;;;;1.53;1.43;;;32.20;52.20;;;;;;5046645;28;20426;-70
2022/08/24 10:57:07;;;;;;;4.07;1.47;;;32.40;52.10;;;;;;5046405;28;20824;-70
2022/08/24 10:59:55;;;;;;;2.17;1.20;;;32.10;51.70;;;;;;5045060;28;20540;-71
2022/08/24 11:02:38;;;;;;;2.20;1.47;;;32.40;52.10;;;;;;5046331;28;20433;-70
2022/08/24 11:05:15;;;;;;;1.57;1.47;;;32.40;51.40;;;;;;5047752;28;20913;-70
2022/08/24 11:08:05;;;;;;;1.80;1.27;;;32.30;51.60;;;;;;5048934;28;20432;-70
2022/08/24 11:10:34;;;;;;;1.30;1.20;;;31.70;51.60;;;;;;5050186;28;20429;-70
2022/08/24 11:13:16;;;;;;;2.33;1.30;;;31.90;51.50;;;;;;5050172;28;21045;-70
2022/08/24 11:15:57;;;;;;;1.23;1.10;;;31.90;50.80;;;;;;5050405;28;20402;-70
2022/08/24 11:18:24;;;;;;;1.10;1.00;;;32.00;51.90;;;;;;5051745;28;20422;-69
2022/08/24 11:20:52;;;;;;;2.13;1.20;;;32.00;51.50;;;;;;5032113;28;20533;-69
2022/08/24 11:23:22;;;;;;;1.90;1.40;;;32.00;50.20;;;;;;5050397;28;20421;-71
2022/08/24 11:26:12;;;;;;;1.80;1.10;;;32.10;49.80;;;;;;5050791;28;20542;-71
2022/08/24 11:28:49;;;;;;;1.83;1.07;;;32.20;48.60;;;;;;5050675;28;20429;-71
2022/08/24 11:31:33;;;;;;;1.20;1.10;;;32.20;48.60;;;;;;5050574;28;21008;-69
2022/08/24 11:34:06;;;;;;;2.07;1.40;;;32.30;49.40;;;;;;5050648;28;20429;-71
2022/08/24 11:36:35;;;;;;;1.10;1.00;;;32.30;49.00;;;;;;5048686;28;20426;-71
2022/08/24 11:39:22;;;;;;;2.20;1.60;;;32.40;48.70;;;;;;5048697;28;20449;-71
2022/08/24 11:42:30;;;;;;;4.33;1.23;;;32.30;47.80;;;;;;5050412;28;20433;-71
2022/08/24 11:45:17;;;;;;;1.43;0.90;;;32.10;47.30;;;;;;5041191;28;20469;-71
2022/08/24 11:47:46;;;;;;;3.83;1.27;;;32.20;48.60;;;;;;5050262;28;20425;-71
2022/08/24 11:50:14;;;;;;;9.93;1.30;;;32.10;48.00;;;;;;5050162;28;20522;-70
2022/08/24 11:52:55;;;;;;;2.90;1.30;;;32.10;48.30;;;;;;5050021;28;20414;-71
2022/08/24 11:55:42;;;;;;;1.17;1.07;;;32.00;47.30;;;;;;5050291;28;20463;-70
2022/08/24 11:58:16;;;;;;;1.30;1.00;;;31.80;48.10;;;;;;5049832;28;20434;-71
2022/08/24 12:00:57;;;;;;;1.20;1.10;;;31.70;47.60;;;;;;5049585;28;20521;-70
2022/08/24 12:03:54;;;;;;;2.70;1.20;;;31.50;47.70;;;;;;5049831;28;20487;-71
2022/08/24 12:06:57;;;;;;;1.50;1.07;;;31.50;48.60;;;;;;5049903;28;20532;-71
2022/08/24 12:09:52;;;;;;;2.57;1.23;;;31.50;48.80;;;;;;5049425;28;20437;-70
2022/08/24 12:13:03;;;;;;;1.30;1.20;;;31.60;48.50;;;;;;5029632;28;20428;-70
2022/08/24 12:15:36;;;;;;;1.30;1.20;;;31.70;48.70;;;;;;5039857;28;20422;-70
2022/08/24 12:18:19;;;;;;;1.63;1.30;;;31.70;49.70;;;;;;5048530;28;20450;-70
2022/08/24 12:20:48;;;;;;;3.10;1.60;;;31.70;50.10;;;;;;5049433;28;20422;-70
2022/08/24 12:23:19;;;;;;;1.27;1.17;;;31.50;48.70;;;;;;5049246;28;20755;-70
2022/08/24 12:26:02;;;;;;;2.20;2.00;;;31.60;50.10;;;;;;5048937;28;20470;-70
2022/08/24 12:28:36;;;;;;;2.00;1.50;;;31.60;49.60;;;;;;5047429;28;20492;-71
2022/08/24 12:31:12;;;;;;;1.70;1.60;;;31.50;49.80;;;;;;5049012;28;20440;-70
2022/08/24 12:33:45;;;;;;;1.60;1.50;;;31.60;50.10;;;;;;5048929;28;20516;-71
2022/08/24 12:36:24;;;;;;;2.33;1.77;;;31.60;50.40;;;;;;5048992;28;20418;-70
2022/08/24 12:39:01;;;;;;;1.73;1.30;;;31.70;50.70;;;;;;5049241;28;20567;-70
2022/08/24 12:42:01;;;;;;;1.67;1.20;;;31.40;51.50;;;;;;5049211;28;20456;-70
2022/08/24 12:44:48;;;;;;;2.00;1.43;;;31.60;51.60;;;;;;5049010;28;20417;-70
2022/08/24 12:47:37;;;;;;;3.23;1.40;;;31.60;51.10;;;;;;5049135;28;20480;-70
2022/08/24 12:50:26;;;;;;;1.90;1.70;;;31.70;53.30;;;;;;5039066;28;20454;-71
2022/08/24 12:53:10;;;;;;;3.90;1.50;;;31.80;52.60;;;;;;5029048;28;20430;-70
2022/08/24 12:55:50;;;;;;;2.13;1.23;;;32.10;51.60;;;;;;5048663;28;20434;-70
2022/08/24 12:58:55;;;;;;;1.80;1.70;;;32.20;52.80;;;;;;5048206;28;21008;-71
2022/08/24 13:01:24;;;;;;;4.83;1.63;;;32.20;52.00;;;;;;5048177;28;20484;-70
2022/08/24 13:04:26;;;;;;;2.13;1.60;;;32.30;52.70;;;;;;5048066;28;20426;-70
2022/08/24 13:07:06;;;;;;;11.03;2.20;;;32.20;53.30;;;;;;5042290;28;20472;-70
2022/08/24 13:09:43;;;;;;;2.20;1.80;;;32.20;53.20;;;;;;5048056;28;20803;-70
2022/08/24 13:12:37;;;;;;;4.00;1.80;;;32.10;53.00;;;;;;5047971;28;20406;-70
2022/08/24 13:15:25;;;;;;;4.97;1.60;;;31.90;53.40;;;;;;5047971;28;20414;-70
2022/08/24 13:18:08;;;;;;;2.87;1.70;;;31.70;54.40;;;;;;5047932;28;20977;-70
2022/08/24 13:20:33;;;;;;;2.30;2.10;;;32.00;54.10;;;;;;5047698;28;21008;-70